New Stuyahok, Alaska
Current Conditions -  °F | °C
As of 11:56 PM on Tuesday 27 Jan 2015 (Local Time) from PANW Reporting Station
Clear Clear  
Wind Chill: -13°   Ceiling: Unl
Heat Index:   Visibility: 10mi
Dew Point:   Wind: 15mph
Humidity: 84%   Direction: 350°N
Pressure: 29.94"   Gusts: NA
Location:  59.45°N, 157.31°W
Report Text: PANW 280856Z AUTO 35013KT 10SM CLR M15/M17 A2994 RMK AO2 TSNO 53012 T11501172 411331177 SLP122 $
Loading
Personal Weather Stations






























Interactive Weather Map New forecast layout! Learn more

10-Day Weather Forecast

Advertisements
Track Severe Weather on mobile